Wetterdaten: aktuell Donnerstag, 16.07.2020 04:30
Datum Zeit Temp 2m Temp 2m ob Temp 10cm Feuchte 2 m Regen Wind mittel Richtung Richtung Taupunkt Windben
16.07.2020 04:30 11,5 C 10,7 C 11,1 C 91 % 0,0 l/m 1,1 km/h N-NW 337 10,1 C 0,0 km/h
16.07.2020 04:25 11,5 C 10,6 C 11,0 C 91 % 0,0 l/m 1,8 km/h W-NW 292 10,1 C 2,4 km/h
16.07.2020 04:20 11,5 C 10,6 C 10,9 C 91 % 0,0 l/m 1,4 km/h W 270 10,1 C 2,1 km/h
16.07.2020 04:15 11,5 C 10,5 C 10,9 C 90 % 0,0 l/m 1,4 km/h N-NW 337 9,9 C 2,6 km/h
16.07.2020 04:10 11,5 C 10,5 C 11,0 C 90 % 0,0 l/m 1,6 km/h NW 315 9,9 C 1,8 km/h
16.07.2020 04:05 11,5 C 10,5 C 11,0 C 90 % 0,0 l/m 1,3 km/h NW 315 9,9 C 2,3 km/h
16.07.2020 04:00 11,6 C 10,5 C 11,0 C 90 % 0,0 l/m 0,2 km/h NW 315 10,0 C 1,8 km/h
16.07.2020 03:55 11,6 C 10,5 C 11,0 C 90 % 0,0 l/m 0,0 km/h N 360 10,0 C 2,1 km/h
16.07.2020 03:50 11,6 C 10,5 C 11,1 C 90 % 0,0 l/m 0,0 km/h NW 315 10,0 C 0,0 km/h
16.07.2020 03:45 11,7 C 10,6 C 11,1 C 90 % 0,0 l/m 0,0 km/h N-NW 337 10,1 C 0,0 km/h
16.07.2020 03:40 11,8 C 10,6 C 11,1 C 90 % 0,0 l/m 0,0 km/h W-NW 292 10,2 C 0,0 km/h
16.07.2020 03:35 11,8 C 10,7 C 11,2 C 90 % 0,0 l/m 0,0 km/h NW 315 10,2 C 0,0 km/h
16.07.2020 03:30 11,9 C 10,7 C 11,3 C 90 % 0,0 l/m 0,0 km/h N 360 10,3 C 0,0 km/h
16.07.2020 03:25 11,9 C 10,8 C 11,3 C 90 % 0,0 l/m 0,0 km/h W 270 10,3 C 0,0 km/h
16.07.2020 03:20 12,0 C 10,9 C 11,4 C 90 % 0,0 l/m 0,0 km/h N-NW 337 10,4 C 0,0 km/h
16.07.2020 03:15 12,0 C 10,9 C 11,4 C 90 % 0,0 l/m 0,0 km/h N 360 10,4 C 0,0 km/h
16.07.2020 03:10 12,1 C 11,1 C 11,5 C 90 % 0,0 l/m 0,0 km/h W-NW 292 10,5 C 0,0 km/h
16.07.2020 03:05 12,1 C 11,1 C 11,5 C 90 % 0,0 l/m 0,0 km/h W-NW 292 10,5 C 0,0 km/h
16.07.2020 03:00 12,1 C 11,1 C 11,6 C 90 % 0,0 l/m 0,0 km/h N-NW 337 10,5 C 0,0 km/h
16.07.2020 02:55 12,2 C 11,2 C 11,7 C 90 % 0,0 l/m 0,0 km/h N-NW 337 10,6 C 0,0 km/h
16.07.2020 02:50 12,2 C 11,3 C 11,7 C 90 % 0,0 l/m 0,0 km/h N-NW 337 10,6 C 0,0 km/h
16.07.2020 02:45 12,3 C 11,3 C 11,7 C 90 % 0,0 l/m 0,0 km/h W-NW 292 10,7 C 0,0 km/h
16.07.2020 02:40 12,3 C 11,4 C 11,8 C 90 % 0,0 l/m 0,0 km/h N-NW 337 10,7 C 0,0 km/h
16.07.2020 02:35 12,3 C 11,4 C 11,9 C 90 % 0,0 l/m 0,0 km/h W-NW 292 10,7 C 0,0 km/h
16.07.2020 02:30 12,3 C 11,5 C 11,9 C 90 % 0,0 l/m 0,0 km/h NW 315 10,7 C 0,0 km/h
16.07.2020 02:25 12,3 C 11,5 C 11,9 C 90 % 0,0 l/m 0,2 km/h NW 315 10,7 C 0,0 km/h
_ Min-Zeit 04:05 03:50 04:15 19:55 - 05:05 - - 04:05 05:00
Minimum _ 11,5 C 10,5 C 10,9 C 85 % - 0,0 km/h - - 9,9 C 0,0 km/h
_ Max-Zeit 13:20 13:20 13:20 13:10 12:25 17:40 - - 13:20 17:45
Maximum _ 17,1 C 18,7 C 17,6 C 91 % 1,4 l/m 6,3 km/h
O-SO
- - 15,6 C 20,0 km/h
O-SO
Durchschnitt _ 14,4 C 13,9 C 14,1 C 89 % #16,5 l/m 1,2 km/h W-NW - 12,5 C 1,6 km/h